sensor_id;sensor_type;location;lat;lon;timestamp;P1;durP1;ratioP1;P2;durP2;ratioP2
50301;SDS011;36550;50.472;19.744;2023-11-18T00:00:03;6.50;;;3.40;;
50301;SDS011;36550;50.472;19.744;2023-11-18T00:02:54;6.40;;;3.20;;
50301;SDS011;36550;50.472;19.744;2023-11-18T00:05:39;6.80;;;3.30;;
50301;SDS011;36550;50.472;19.744;2023-11-18T00:08:23;5.20;;;3.10;;
50301;SDS011;36550;50.472;19.744;2023-11-18T00:11:07;6.20;;;2.80;;
50301;SDS011;36550;50.472;19.744;2023-11-18T00:13:52;4.60;;;2.50;;
50301;SDS011;36550;50.472;19.744;2023-11-18T00:16:38;5.20;;;2.40;;
50301;SDS011;36550;50.472;19.744;2023-11-18T00:19:22;5.00;;;2.60;;
50301;SDS011;36550;50.472;19.744;2023-11-18T00:22:06;6.00;;;2.90;;
50301;SDS011;36550;50.472;19.744;2023-11-18T00:24:50;6.50;;;3.10;;
50301;SDS011;36550;50.472;19.744;2023-11-18T00:27:36;7.70;;;4.50;;
50301;SDS011;36550;50.472;19.744;2023-11-18T00:30:21;6.30;;;3.00;;
50301;SDS011;36550;50.472;19.744;2023-11-18T00:33:05;5.90;;;2.90;;
50301;SDS011;36550;50.472;19.744;2023-11-18T00:35:50;5.30;;;2.60;;
50301;SDS011;36550;50.472;19.744;2023-11-18T00:38:34;5.90;;;2.80;;
50301;SDS011;36550;50.472;19.744;2023-11-18T00:41:18;4.50;;;2.50;;
50301;SDS011;36550;50.472;19.744;2023-11-18T00:44:02;4.90;;;2.60;;
50301;SDS011;36550;50.472;19.744;2023-11-18T00:46:47;5.10;;;2.50;;
50301;SDS011;36550;50.472;19.744;2023-11-18T00:49:31;4.20;;;2.20;;
50301;SDS011;36550;50.472;19.744;2023-11-18T00:52:17;5.80;;;2.30;;
50301;SDS011;36550;50.472;19.744;2023-11-18T00:55:02;6.80;;;2.90;;
50301;SDS011;36550;50.472;19.744;2023-11-18T00:57:47;5.00;;;2.60;;
50301;SDS011;36550;50.472;19.744;2023-11-18T01:00:31;5.90;;;2.80;;
50301;SDS011;36550;50.472;19.744;2023-11-18T01:03:15;6.70;;;2.90;;
50301;SDS011;36550;50.472;19.744;2023-11-18T01:05:59;7.60;;;3.60;;
50301;SDS011;36550;50.472;19.744;2023-11-18T01:08:45;6.80;;;3.00;;
50301;SDS011;36550;50.472;19.744;2023-11-18T01:11:29;5.50;;;2.80;;
50301;SDS011;36550;50.472;19.744;2023-11-18T01:14:14;6.30;;;2.80;;
50301;SDS011;36550;50.472;19.744;2023-11-18T01:16:58;6.10;;;3.10;;
50301;SDS011;36550;50.472;19.744;2023-11-18T01:19:43;5.10;;;2.60;;
50301;SDS011;36550;50.472;19.744;2023-11-18T01:22:27;6.50;;;3.70;;
50301;SDS011;36550;50.472;19.744;2023-11-18T01:25:11;4.90;;;3.00;;
50301;SDS011;36550;50.472;19.744;2023-11-18T01:27:55;10.30;;;4.50;;
50301;SDS011;36550;50.472;19.744;2023-11-18T01:30:39;11.30;;;5.70;;
50301;SDS011;36550;50.472;19.744;2023-11-18T01:33:23;7.90;;;3.60;;
50301;SDS011;36550;50.472;19.744;2023-11-18T01:36:09;4.00;;;2.50;;
50301;SDS011;36550;50.472;19.744;2023-11-18T01:38:53;4.20;;;2.10;;
50301;SDS011;36550;50.472;19.744;2023-11-18T01:41:38;4.50;;;2.00;;
50301;SDS011;36550;50.472;19.744;2023-11-18T01:44:23;3.80;;;2.10;;
50301;SDS011;36550;50.472;19.744;2023-11-18T01:47:07;5.00;;;2.00;;
50301;SDS011;36550;50.472;19.744;2023-11-18T01:49:56;3.60;;;2.30;;
50301;SDS011;36550;50.472;19.744;2023-11-18T01:52:40;5.40;;;2.90;;
50301;SDS011;36550;50.472;19.744;2023-11-18T01:55:25;4.40;;;2.40;;
50301;SDS011;36550;50.472;19.744;2023-11-18T01:58:09;5.10;;;2.20;;
50301;SDS011;36550;50.472;19.744;2023-11-18T02:00:54;4.60;;;2.30;;
50301;SDS011;36550;50.472;19.744;2023-11-18T02:03:39;7.20;;;3.10;;
50301;SDS011;36550;50.472;19.744;2023-11-18T02:06:24;4.60;;;2.30;;
50301;SDS011;36550;50.472;19.744;2023-11-18T02:09:08;4.00;;;2.20;;
50301;SDS011;36550;50.472;19.744;2023-11-18T02:11:54;3.70;;;2.40;;
50301;SDS011;36550;50.472;19.744;2023-11-18T02:14:44;7.50;;;3.10;;
50301;SDS011;36550;50.472;19.744;2023-11-18T02:17:29;4.60;;;2.90;;
50301;SDS011;36550;50.472;19.744;2023-11-18T02:20:13;4.60;;;3.10;;
50301;SDS011;36550;50.472;19.744;2023-11-18T02:23:00;5.60;;;2.80;;
50301;SDS011;36550;50.472;19.744;2023-11-18T02:25:47;6.30;;;3.10;;
50301;SDS011;36550;50.472;19.744;2023-11-18T02:28:32;6.60;;;3.90;;
50301;SDS011;36550;50.472;19.744;2023-11-18T02:31:20;6.30;;;2.90;;
50301;SDS011;36550;50.472;19.744;2023-11-18T02:34:12;8.70;;;3.10;;
50301;SDS011;36550;50.472;19.744;2023-11-18T02:37:00;4.70;;;2.80;;
50301;SDS011;36550;50.472;19.744;2023-11-18T02:39:54;4.60;;;2.70;;
50301;SDS011;36550;50.472;19.744;2023-11-18T02:42:47;4.30;;;2.90;;
50301;SDS011;36550;50.472;19.744;2023-11-18T02:45:36;5.80;;;2.90;;
50301;SDS011;36550;50.472;19.744;2023-11-18T02:48:22;5.90;;;3.00;;
50301;SDS011;36550;50.472;19.744;2023-11-18T02:51:07;5.30;;;2.90;;
50301;SDS011;36550;50.472;19.744;2023-11-18T02:53:52;5.10;;;2.70;;
50301;SDS011;36550;50.472;19.744;2023-11-18T02:56:36;5.40;;;2.90;;
50301;SDS011;36550;50.472;19.744;2023-11-18T02:59:21;7.30;;;2.50;;
50301;SDS011;36550;50.472;19.744;2023-11-18T03:02:05;5.50;;;3.10;;
50301;SDS011;36550;50.472;19.744;2023-11-18T03:04:50;5.50;;;2.80;;
50301;SDS011;36550;50.472;19.744;2023-11-18T03:07:34;4.10;;;2.60;;
50301;SDS011;36550;50.472;19.744;2023-11-18T03:10:21;4.00;;;2.20;;
50301;SDS011;36550;50.472;19.744;2023-11-18T03:13:05;5.70;;;2.80;;
50301;SDS011;36550;50.472;19.744;2023-11-18T03:15:50;4.60;;;2.80;;
50301;SDS011;36550;50.472;19.744;2023-11-18T03:18:35;4.90;;;2.50;;
50301;SDS011;36550;50.472;19.744;2023-11-18T03:21:21;4.00;;;2.40;;
50301;SDS011;36550;50.472;19.744;2023-11-18T03:24:06;6.40;;;2.40;;
50301;SDS011;36550;50.472;19.744;2023-11-18T03:26:51;4.30;;;2.50;;
50301;SDS011;36550;50.472;19.744;2023-11-18T03:29:34;5.50;;;2.60;;
50301;SDS011;36550;50.472;19.744;2023-11-18T03:32:19;5.40;;;2.90;;
50301;SDS011;36550;50.472;19.744;2023-11-18T03:35:04;6.00;;;2.70;;
50301;SDS011;36550;50.472;19.744;2023-11-18T03:37:55;5.70;;;2.90;;
50301;SDS011;36550;50.472;19.744;2023-11-18T03:40:40;5.80;;;3.00;;
50301;SDS011;36550;50.472;19.744;2023-11-18T03:43:25;7.60;;;3.30;;
50301;SDS011;36550;50.472;19.744;2023-11-18T03:46:09;5.40;;;2.80;;
50301;SDS011;36550;50.472;19.744;2023-11-18T03:48:54;5.40;;;3.10;;
50301;SDS011;36550;50.472;19.744;2023-11-18T03:51:38;3.80;;;2.40;;
50301;SDS011;36550;50.472;19.744;2023-11-18T03:54:23;4.80;;;2.70;;
50301;SDS011;36550;50.472;19.744;2023-11-18T03:57:07;4.20;;;2.60;;
50301;SDS011;36550;50.472;19.744;2023-11-18T03:59:51;3.90;;;2.10;;
50301;SDS011;36550;50.472;19.744;2023-11-18T04:02:35;5.00;;;2.70;;
50301;SDS011;36550;50.472;19.744;2023-11-18T04:05:20;4.00;;;2.30;;
50301;SDS011;36550;50.472;19.744;2023-11-18T04:08:04;4.80;;;2.50;;
50301;SDS011;36550;50.472;19.744;2023-11-18T04:10:48;4.00;;;2.30;;
50301;SDS011;36550;50.472;19.744;2023-11-18T04:13:32;4.50;;;2.20;;
50301;SDS011;36550;50.472;19.744;2023-11-18T04:16:17;3.40;;;2.20;;
50301;SDS011;36550;50.472;19.744;2023-11-18T04:19:01;5.10;;;2.50;;
50301;SDS011;36550;50.472;19.744;2023-11-18T04:21:46;3.80;;;2.10;;
50301;SDS011;36550;50.472;19.744;2023-11-18T04:24:33;4.30;;;2.50;;
50301;SDS011;36550;50.472;19.744;2023-11-18T04:27:18;5.90;;;2.80;;
50301;SDS011;36550;50.472;19.744;2023-11-18T04:30:03;5.20;;;2.50;;
50301;SDS011;36550;50.472;19.744;2023-11-18T04:32:48;4.60;;;1.90;;
50301;SDS011;36550;50.472;19.744;2023-11-18T04:35:32;3.90;;;1.90;;
50301;SDS011;36550;50.472;19.744;2023-11-18T04:38:18;3.20;;;2.00;;
50301;SDS011;36550;50.472;19.744;2023-11-18T04:41:03;4.00;;;2.00;;
50301;SDS011;36550;50.472;19.744;2023-11-18T04:43:47;3.80;;;2.10;;
50301;SDS011;36550;50.472;19.744;2023-11-18T04:46:32;5.50;;;2.10;;
50301;SDS011;36550;50.472;19.744;2023-11-18T04:49:16;3.50;;;1.90;;
50301;SDS011;36550;50.472;19.744;2023-11-18T04:52:00;2.70;;;2.00;;
50301;SDS011;36550;50.472;19.744;2023-11-18T04:54:44;3.10;;;2.10;;
50301;SDS011;36550;50.472;19.744;2023-11-18T04:57:31;3.30;;;2.00;;
50301;SDS011;36550;50.472;19.744;2023-11-18T05:00:16;3.30;;;1.90;;
50301;SDS011;36550;50.472;19.744;2023-11-18T05:03:01;3.80;;;2.30;;
50301;SDS011;36550;50.472;19.744;2023-11-18T05:05:47;3.40;;;2.10;;
50301;SDS011;36550;50.472;19.744;2023-11-18T05:08:31;3.50;;;2.10;;
50301;SDS011;36550;50.472;19.744;2023-11-18T05:11:17;4.60;;;1.80;;
50301;SDS011;36550;50.472;19.744;2023-11-18T05:14:01;3.20;;;1.90;;
50301;SDS011;36550;50.472;19.744;2023-11-18T05:16:47;3.70;;;1.70;;
50301;SDS011;36550;50.472;19.744;2023-11-18T05:19:31;3.40;;;1.90;;
50301;SDS011;36550;50.472;19.744;2023-11-18T05:22:15;4.10;;;1.90;;
50301;SDS011;36550;50.472;19.744;2023-11-18T05:25:00;3.20;;;1.70;;
50301;SDS011;36550;50.472;19.744;2023-11-18T05:27:44;4.00;;;2.00;;
50301;SDS011;36550;50.472;19.744;2023-11-18T05:30:29;3.10;;;1.70;;
50301;SDS011;36550;50.472;19.744;2023-11-18T05:33:14;4.20;;;1.90;;
50301;SDS011;36550;50.472;19.744;2023-11-18T05:36:01;3.20;;;1.70;;
50301;SDS011;36550;50.472;19.744;2023-11-18T05:38:48;3.10;;;1.70;;
50301;SDS011;36550;50.472;19.744;2023-11-18T05:41:32;3.60;;;2.20;;
50301;SDS011;36550;50.472;19.744;2023-11-18T05:44:19;2.80;;;1.60;;
50301;SDS011;36550;50.472;19.744;2023-11-18T05:47:05;2.90;;;1.70;;
50301;SDS011;36550;50.472;19.744;2023-11-18T05:49:51;3.60;;;1.80;;
50301;SDS011;36550;50.472;19.744;2023-11-18T05:52:35;2.90;;;1.60;;
50301;SDS011;36550;50.472;19.744;2023-11-18T05:55:19;4.20;;;2.10;;
50301;SDS011;36550;50.472;19.744;2023-11-18T05:58:04;3.50;;;1.90;;
50301;SDS011;36550;50.472;19.744;2023-11-18T06:00:48;3.80;;;1.70;;
50301;SDS011;36550;50.472;19.744;2023-11-18T06:03:33;3.20;;;1.60;;
50301;SDS011;36550;50.472;19.744;2023-11-18T06:06:22;3.60;;;1.50;;
50301;SDS011;36550;50.472;19.744;2023-11-18T06:09:07;2.50;;;1.40;;
50301;SDS011;36550;50.472;19.744;2023-11-18T06:12:01;4.10;;;1.60;;
50301;SDS011;36550;50.472;19.744;2023-11-18T06:14:46;2.30;;;1.30;;
50301;SDS011;36550;50.472;19.744;2023-11-18T06:17:32;2.10;;;1.10;;
50301;SDS011;36550;50.472;19.744;2023-11-18T06:20:16;3.30;;;1.20;;
50301;SDS011;36550;50.472;19.744;2023-11-18T06:23:01;2.70;;;1.30;;
50301;SDS011;36550;50.472;19.744;2023-11-18T06:25:45;1.90;;;1.30;;
50301;SDS011;36550;50.472;19.744;2023-11-18T06:28:29;5.20;;;1.80;;
50301;SDS011;36550;50.472;19.744;2023-11-18T06:31:14;3.00;;;1.60;;
50301;SDS011;36550;50.472;19.744;2023-11-18T06:33:59;3.40;;;1.70;;
50301;SDS011;36550;50.472;19.744;2023-11-18T06:36:43;2.90;;;1.70;;
50301;SDS011;36550;50.472;19.744;2023-11-18T06:39:27;5.30;;;2.10;;
50301;SDS011;36550;50.472;19.744;2023-11-18T06:42:13;4.30;;;1.90;;
50301;SDS011;36550;50.472;19.744;2023-11-18T06:44:57;6.20;;;2.90;;
50301;SDS011;36550;50.472;19.744;2023-11-18T06:47:42;6.50;;;3.20;;
50301;SDS011;36550;50.472;19.744;2023-11-18T06:50:29;6.00;;;2.80;;
50301;SDS011;36550;50.472;19.744;2023-11-18T06:53:13;7.00;;;3.20;;
50301;SDS011;36550;50.472;19.744;2023-11-18T06:55:58;6.30;;;3.50;;
50301;SDS011;36550;50.472;19.744;2023-11-18T06:58:43;8.30;;;4.50;;
50301;SDS011;36550;50.472;19.744;2023-11-18T07:01:27;8.30;;;4.10;;
50301;SDS011;36550;50.472;19.744;2023-11-18T07:04:15;7.70;;;4.00;;
50301;SDS011;36550;50.472;19.744;2023-11-18T07:06:59;10.90;;;4.80;;
50301;SDS011;36550;50.472;19.744;2023-11-18T07:09:45;10.30;;;5.10;;
50301;SDS011;36550;50.472;19.744;2023-11-18T07:12:32;10.70;;;4.90;;
50301;SDS011;36550;50.472;19.744;2023-11-18T07:15:18;9.40;;;5.40;;
50301;SDS011;36550;50.472;19.744;2023-11-18T07:18:02;12.20;;;6.40;;
50301;SDS011;36550;50.472;19.744;2023-11-18T07:20:46;13.70;;;7.60;;
50301;SDS011;36550;50.472;19.744;2023-11-18T07:23:34;16.00;;;7.10;;
50301;SDS011;36550;50.472;19.744;2023-11-18T07:26:18;15.60;;;7.30;;
50301;SDS011;36550;50.472;19.744;2023-11-18T07:29:02;12.10;;;6.20;;
50301;SDS011;36550;50.472;19.744;2023-11-18T07:31:47;13.40;;;7.10;;
50301;SDS011;36550;50.472;19.744;2023-11-18T07:34:31;14.90;;;7.30;;
50301;SDS011;36550;50.472;19.744;2023-11-18T07:37:19;16.70;;;7.70;;
50301;SDS011;36550;50.472;19.744;2023-11-18T07:40:04;17.10;;;8.20;;
50301;SDS011;36550;50.472;19.744;2023-11-18T07:42:49;16.30;;;7.30;;
50301;SDS011;36550;50.472;19.744;2023-11-18T07:45:36;14.60;;;6.90;;
50301;SDS011;36550;50.472;19.744;2023-11-18T07:48:21;13.70;;;6.50;;
50301;SDS011;36550;50.472;19.744;2023-11-18T07:51:06;13.00;;;6.70;;
50301;SDS011;36550;50.472;19.744;2023-11-18T07:53:52;12.40;;;6.10;;
50301;SDS011;36550;50.472;19.744;2023-11-18T07:56:40;12.70;;;6.30;;
50301;SDS011;36550;50.472;19.744;2023-11-18T07:59:25;13.00;;;5.70;;
50301;SDS011;36550;50.472;19.744;2023-11-18T08:02:09;12.80;;;5.50;;
50301;SDS011;36550;50.472;19.744;2023-11-18T08:04:54;10.00;;;4.90;;
50301;SDS011;36550;50.472;19.744;2023-11-18T08:07:41;7.80;;;3.70;;
50301;SDS011;36550;50.472;19.744;2023-11-18T08:10:27;9.40;;;5.10;;
50301;SDS011;36550;50.472;19.744;2023-11-18T08:13:12;6.60;;;3.50;;
50301;SDS011;36550;50.472;19.744;2023-11-18T08:15:56;8.30;;;4.80;;
50301;SDS011;36550;50.472;19.744;2023-11-18T08:18:44;7.70;;;4.70;;
50301;SDS011;36550;50.472;19.744;2023-11-18T08:21:28;10.10;;;5.20;;
50301;SDS011;36550;50.472;19.744;2023-11-18T08:24:13;10.50;;;5.20;;
50301;SDS011;36550;50.472;19.744;2023-11-18T08:26:57;11.50;;;5.50;;
50301;SDS011;36550;50.472;19.744;2023-11-18T08:29:41;11.60;;;6.10;;
50301;SDS011;36550;50.472;19.744;2023-11-18T08:32:26;12.00;;;7.10;;
50301;SDS011;36550;50.472;19.744;2023-11-18T08:35:13;12.20;;;6.40;;
50301;SDS011;36550;50.472;19.744;2023-11-18T08:37:58;14.00;;;7.20;;
50301;SDS011;36550;50.472;19.744;2023-11-18T08:40:44;12.60;;;7.10;;
50301;SDS011;36550;50.472;19.744;2023-11-18T08:43:29;14.30;;;7.30;;
50301;SDS011;36550;50.472;19.744;2023-11-18T08:46:14;11.20;;;6.60;;
50301;SDS011;36550;50.472;19.744;2023-11-18T08:48:59;10.80;;;5.50;;
50301;SDS011;36550;50.472;19.744;2023-11-18T08:51:49;11.10;;;5.80;;
50301;SDS011;36550;50.472;19.744;2023-11-18T08:54:39;13.10;;;6.40;;
50301;SDS011;36550;50.472;19.744;2023-11-18T08:57:47;12.50;;;6.40;;
50301;SDS011;36550;50.472;19.744;2023-11-18T09:00:42;13.30;;;7.10;;
50301;SDS011;36550;50.472;19.744;2023-11-18T09:03:29;12.00;;;6.20;;
50301;SDS011;36550;50.472;19.744;2023-11-18T09:06:19;14.00;;;6.40;;
50301;SDS011;36550;50.472;19.744;2023-11-18T09:09:12;12.20;;;6.50;;
50301;SDS011;36550;50.472;19.744;2023-11-18T09:11:59;11.90;;;6.80;;
50301;SDS011;36550;50.472;19.744;2023-11-18T09:14:43;10.20;;;5.20;;
50301;SDS011;36550;50.472;19.744;2023-11-18T09:17:30;12.90;;;6.80;;
50301;SDS011;36550;50.472;19.744;2023-11-18T09:20:14;13.90;;;7.60;;
50301;SDS011;36550;50.472;19.744;2023-11-18T09:23:04;14.40;;;7.40;;
50301;SDS011;36550;50.472;19.744;2023-11-18T09:25:49;13.40;;;7.60;;
50301;SDS011;36550;50.472;19.744;2023-11-18T09:28:34;12.00;;;6.60;;
50301;SDS011;36550;50.472;19.744;2023-11-18T09:31:19;13.80;;;6.90;;
50301;SDS011;36550;50.472;19.744;2023-11-18T09:34:04;13.00;;;7.30;;
50301;SDS011;36550;50.472;19.744;2023-11-18T09:36:59;11.50;;;7.00;;
50301;SDS011;36550;50.472;19.744;2023-11-18T09:39:43;10.20;;;5.20;;
50301;SDS011;36550;50.472;19.744;2023-11-18T09:42:29;11.20;;;5.60;;
50301;SDS011;36550;50.472;19.744;2023-11-18T09:45:13;9.10;;;5.80;;
50301;SDS011;36550;50.472;19.744;2023-11-18T09:48:03;10.50;;;6.20;;
50301;SDS011;36550;50.472;19.744;2023-11-18T09:50:51;11.30;;;5.90;;
50301;SDS011;36550;50.472;19.744;2023-11-18T09:53:37;10.00;;;6.10;;
50301;SDS011;36550;50.472;19.744;2023-11-18T09:56:41;8.70;;;4.90;;
50301;SDS011;36550;50.472;19.744;2023-11-18T10:02:28;10.50;;;5.10;;
50301;SDS011;36550;50.472;19.744;2023-11-18T10:05:13;9.80;;;5.30;;
50301;SDS011;36550;50.472;19.744;2023-11-18T10:07:59;9.40;;;5.70;;
50301;SDS011;36550;50.472;19.744;2023-11-18T10:10:44;11.40;;;5.20;;
50301;SDS011;36550;50.472;19.744;2023-11-18T10:13:29;11.60;;;5.30;;
50301;SDS011;36550;50.472;19.744;2023-11-18T10:16:14;8.50;;;4.60;;
50301;SDS011;36550;50.472;19.744;2023-11-18T10:18:59;9.10;;;5.50;;
50301;SDS011;36550;50.472;19.744;2023-11-18T10:21:52;11.10;;;5.20;;
50301;SDS011;36550;50.472;19.744;2023-11-18T10:24:45;8.90;;;4.80;;
50301;SDS011;36550;50.472;19.744;2023-11-18T10:27:29;7.00;;;4.40;;
50301;SDS011;36550;50.472;19.744;2023-11-18T10:30:14;9.40;;;4.90;;
50301;SDS011;36550;50.472;19.744;2023-11-18T10:33:05;7.80;;;4.30;;
50301;SDS011;36550;50.472;19.744;2023-11-18T10:35:51;8.80;;;4.50;;
50301;SDS011;36550;50.472;19.744;2023-11-18T10:38:39;7.80;;;4.40;;
50301;SDS011;36550;50.472;19.744;2023-11-18T10:41:27;9.40;;;5.10;;
50301;SDS011;36550;50.472;19.744;2023-11-18T10:44:14;8.40;;;4.30;;
50301;SDS011;36550;50.472;19.744;2023-11-18T10:46:59;8.20;;;4.70;;
50301;SDS011;36550;50.472;19.744;2023-11-18T10:49:43;9.40;;;4.80;;
50301;SDS011;36550;50.472;19.744;2023-11-18T10:52:27;10.00;;;4.80;;
50301;SDS011;36550;50.472;19.744;2023-11-18T10:55:20;6.10;;;3.70;;
50301;SDS011;36550;50.472;19.744;2023-11-18T10:58:05;9.20;;;4.70;;
50301;SDS011;36550;50.472;19.744;2023-11-18T11:03:54;8.00;;;4.70;;
50301;SDS011;36550;50.472;19.744;2023-11-18T11:06:45;8.10;;;4.60;;
50301;SDS011;36550;50.472;19.744;2023-11-18T11:09:36;8.00;;;5.00;;
50301;SDS011;36550;50.472;19.744;2023-11-18T11:12:21;7.90;;;5.00;;
50301;SDS011;36550;50.472;19.744;2023-11-18T11:15:12;10.60;;;5.50;;
50301;SDS011;36550;50.472;19.744;2023-11-18T11:18:05;8.80;;;4.90;;
50301;SDS011;36550;50.472;19.744;2023-11-18T11:21:14;8.60;;;4.90;;
50301;SDS011;36550;50.472;19.744;2023-11-18T11:24:08;7.80;;;4.60;;
50301;SDS011;36550;50.472;19.744;2023-11-18T11:33:32;8.00;;;4.80;;
50301;SDS011;36550;50.472;19.744;2023-11-18T11:36:25;8.10;;;4.50;;
50301;SDS011;36550;50.472;19.744;2023-11-18T11:39:25;9.20;;;4.80;;
50301;SDS011;36550;50.472;19.744;2023-11-18T11:42:09;9.50;;;5.30;;
50301;SDS011;36550;50.472;19.744;2023-11-18T11:44:56;8.70;;;4.60;;
50301;SDS011;36550;50.472;19.744;2023-11-18T11:47:41;7.10;;;4.00;;
50301;SDS011;36550;50.472;19.744;2023-11-18T11:50:31;7.80;;;5.00;;
50301;SDS011;36550;50.472;19.744;2023-11-18T11:53:20;8.30;;;4.50;;
50301;SDS011;36550;50.472;19.744;2023-11-18T11:56:07;8.10;;;5.00;;
50301;SDS011;36550;50.472;19.744;2023-11-18T11:58:58;9.70;;;5.20;;
50301;SDS011;36550;50.472;19.744;2023-11-18T12:01:43;9.10;;;5.30;;
50301;SDS011;36550;50.472;19.744;2023-11-18T12:04:30;9.60;;;5.20;;
50301;SDS011;36550;50.472;19.744;2023-11-18T12:07:15;8.60;;;4.70;;
50301;SDS011;36550;50.472;19.744;2023-11-18T12:10:00;9.40;;;4.90;;
50301;SDS011;36550;50.472;19.744;2023-11-18T12:12:45;10.30;;;5.00;;
50301;SDS011;36550;50.472;19.744;2023-11-18T12:19:09;7.40;;;4.30;;
50301;SDS011;36550;50.472;19.744;2023-11-18T12:22:11;9.20;;;5.20;;
50301;SDS011;36550;50.472;19.744;2023-11-18T12:27:46;7.00;;;4.20;;
50301;SDS011;36550;50.472;19.744;2023-11-18T12:33:26;7.80;;;4.40;;
50301;SDS011;36550;50.472;19.744;2023-11-18T12:36:50;7.60;;;4.80;;
50301;SDS011;36550;50.472;19.744;2023-11-18T12:43:02;8.60;;;4.10;;
50301;SDS011;36550;50.472;19.744;2023-11-18T12:46:07;8.50;;;4.90;;
50301;SDS011;36550;50.472;19.744;2023-11-18T12:49:14;11.60;;;5.70;;
50301;SDS011;36550;50.472;19.744;2023-11-18T12:51:59;12.20;;;6.30;;
50301;SDS011;36550;50.472;19.744;2023-11-18T12:54:44;9.30;;;5.30;;
50301;SDS011;36550;50.472;19.744;2023-11-18T12:57:28;11.80;;;5.50;;
50301;SDS011;36550;50.472;19.744;2023-11-18T13:00:17;9.40;;;4.70;;
50301;SDS011;36550;50.472;19.744;2023-11-18T13:03:11;9.40;;;5.10;;
50301;SDS011;36550;50.472;19.744;2023-11-18T13:05:58;10.20;;;5.80;;
50301;SDS011;36550;50.472;19.744;2023-11-18T13:08:43;11.30;;;6.10;;
50301;SDS011;36550;50.472;19.744;2023-11-18T13:11:27;12.40;;;7.10;;
50301;SDS011;36550;50.472;19.744;2023-11-18T13:14:12;10.30;;;5.70;;
50301;SDS011;36550;50.472;19.744;2023-11-18T13:16:57;15.00;;;7.80;;
50301;SDS011;36550;50.472;19.744;2023-11-18T13:19:42;12.70;;;5.90;;
50301;SDS011;36550;50.472;19.744;2023-11-18T13:22:29;10.40;;;5.40;;
50301;SDS011;36550;50.472;19.744;2023-11-18T13:25:15;15.10;;;6.30;;
50301;SDS011;36550;50.472;19.744;2023-11-18T13:28:03;12.00;;;5.90;;
50301;SDS011;36550;50.472;19.744;2023-11-18T13:30:48;10.20;;;6.40;;
50301;SDS011;36550;50.472;19.744;2023-11-18T13:33:35;11.00;;;6.20;;
50301;SDS011;36550;50.472;19.744;2023-11-18T13:36:21;13.30;;;6.40;;
50301;SDS011;36550;50.472;19.744;2023-11-18T13:39:05;12.50;;;7.20;;
50301;SDS011;36550;50.472;19.744;2023-11-18T13:41:51;12.00;;;5.90;;
50301;SDS011;36550;50.472;19.744;2023-11-18T13:44:35;12.20;;;6.80;;
50301;SDS011;36550;50.472;19.744;2023-11-18T13:50:09;9.70;;;6.00;;
50301;SDS011;36550;50.472;19.744;2023-11-18T13:52:54;10.10;;;5.90;;
50301;SDS011;36550;50.472;19.744;2023-11-18T13:55:39;9.20;;;5.90;;
50301;SDS011;36550;50.472;19.744;2023-11-18T13:58:24;9.30;;;5.50;;
50301;SDS011;36550;50.472;19.744;2023-11-18T14:01:12;11.40;;;6.10;;
50301;SDS011;36550;50.472;19.744;2023-11-18T14:03:56;10.20;;;5.90;;
50301;SDS011;36550;50.472;19.744;2023-11-18T14:06:45;10.70;;;6.50;;
50301;SDS011;36550;50.472;19.744;2023-11-18T14:09:36;10.00;;;5.30;;
50301;SDS011;36550;50.472;19.744;2023-11-18T14:12:23;8.80;;;5.50;;
50301;SDS011;36550;50.472;19.744;2023-11-18T14:15:11;10.00;;;5.50;;
50301;SDS011;36550;50.472;19.744;2023-11-18T14:17:59;10.70;;;5.60;;
50301;SDS011;36550;50.472;19.744;2023-11-18T14:20:45;10.30;;;5.40;;
50301;SDS011;36550;50.472;19.744;2023-11-18T14:23:30;10.80;;;6.50;;
50301;SDS011;36550;50.472;19.744;2023-11-18T14:26:14;9.60;;;6.20;;
50301;SDS011;36550;50.472;19.744;2023-11-18T14:28:58;10.90;;;6.10;;
50301;SDS011;36550;50.472;19.744;2023-11-18T14:31:44;11.10;;;6.30;;
50301;SDS011;36550;50.472;19.744;2023-11-18T14:34:29;11.60;;;6.90;;
50301;SDS011;36550;50.472;19.744;2023-11-18T14:37:13;11.20;;;5.50;;
50301;SDS011;36550;50.472;19.744;2023-11-18T14:39:58;11.50;;;6.60;;
50301;SDS011;36550;50.472;19.744;2023-11-18T14:42:42;13.90;;;7.30;;
50301;SDS011;36550;50.472;19.744;2023-11-18T14:45:28;12.70;;;7.10;;
50301;SDS011;36550;50.472;19.744;2023-11-18T14:48:12;10.40;;;5.90;;
50301;SDS011;36550;50.472;19.744;2023-11-18T14:50:57;11.30;;;7.10;;
50301;SDS011;36550;50.472;19.744;2023-11-18T14:53:41;14.40;;;7.70;;
50301;SDS011;36550;50.472;19.744;2023-11-18T14:56:27;12.10;;;7.00;;
50301;SDS011;36550;50.472;19.744;2023-11-18T14:59:11;11.40;;;6.80;;
50301;SDS011;36550;50.472;19.744;2023-11-18T15:01:55;12.20;;;6.90;;
50301;SDS011;36550;50.472;19.744;2023-11-18T15:04:41;15.10;;;7.80;;
50301;SDS011;36550;50.472;19.744;2023-11-18T15:07:27;14.10;;;7.60;;
50301;SDS011;36550;50.472;19.744;2023-11-18T15:10:11;13.60;;;8.20;;
50301;SDS011;36550;50.472;19.744;2023-11-18T15:12:58;15.40;;;7.80;;
50301;SDS011;36550;50.472;19.744;2023-11-18T15:15:44;15.40;;;8.20;;
50301;SDS011;36550;50.472;19.744;2023-11-18T15:18:32;13.50;;;8.00;;
50301;SDS011;36550;50.472;19.744;2023-11-18T15:21:16;13.30;;;8.50;;
50301;SDS011;36550;50.472;19.744;2023-11-18T15:24:00;13.90;;;6.80;;
50301;SDS011;36550;50.472;19.744;2023-11-18T15:26:45;13.30;;;7.70;;
50301;SDS011;36550;50.472;19.744;2023-11-18T15:29:34;14.00;;;7.80;;
50301;SDS011;36550;50.472;19.744;2023-11-18T15:32:22;15.70;;;8.80;;
50301;SDS011;36550;50.472;19.744;2023-11-18T15:35:06;13.60;;;7.90;;
50301;SDS011;36550;50.472;19.744;2023-11-18T15:37:54;13.70;;;7.60;;
50301;SDS011;36550;50.472;19.744;2023-11-18T15:40:38;19.50;;;9.00;;
50301;SDS011;36550;50.472;19.744;2023-11-18T15:43:23;19.50;;;10.90;;
50301;SDS011;36550;50.472;19.744;2023-11-18T15:46:08;28.50;;;12.70;;
50301;SDS011;36550;50.472;19.744;2023-11-18T15:48:54;21.40;;;10.90;;
50301;SDS011;36550;50.472;19.744;2023-11-18T15:51:39;20.70;;;9.80;;
50301;SDS011;36550;50.472;19.744;2023-11-18T15:54:24;19.70;;;8.10;;
50301;SDS011;36550;50.472;19.744;2023-11-18T15:57:08;19.40;;;8.40;;
50301;SDS011;36550;50.472;19.744;2023-11-18T15:59:53;19.40;;;9.30;;
50301;SDS011;36550;50.472;19.744;2023-11-18T16:02:37;23.00;;;8.90;;
50301;SDS011;36550;50.472;19.744;2023-11-18T16:05:22;20.50;;;8.60;;
50301;SDS011;36550;50.472;19.744;2023-11-18T16:08:07;21.90;;;9.80;;
50301;SDS011;36550;50.472;19.744;2023-11-18T16:10:52;20.50;;;8.60;;
50301;SDS011;36550;50.472;19.744;2023-11-18T16:13:38;19.00;;;9.00;;
50301;SDS011;36550;50.472;19.744;2023-11-18T16:16:22;18.00;;;8.20;;
50301;SDS011;36550;50.472;19.744;2023-11-18T16:19:10;16.40;;;8.00;;
50301;SDS011;36550;50.472;19.744;2023-11-18T16:21:55;16.00;;;8.30;;
50301;SDS011;36550;50.472;19.744;2023-11-18T16:24:39;15.70;;;7.90;;
50301;SDS011;36550;50.472;19.744;2023-11-18T16:27:23;11.60;;;7.10;;
50301;SDS011;36550;50.472;19.744;2023-11-18T16:30:08;13.80;;;7.30;;
50301;SDS011;36550;50.472;19.744;2023-11-18T16:32:52;13.20;;;7.40;;
50301;SDS011;36550;50.472;19.744;2023-11-18T16:35:36;15.50;;;8.20;;
50301;SDS011;36550;50.472;19.744;2023-11-18T16:38:20;12.80;;;7.50;;
50301;SDS011;36550;50.472;19.744;2023-11-18T16:41:05;11.40;;;7.10;;
50301;SDS011;36550;50.472;19.744;2023-11-18T16:43:50;13.20;;;7.90;;
50301;SDS011;36550;50.472;19.744;2023-11-18T16:46:38;16.00;;;8.50;;